Wednesday, November 22, 2017, 4:42 PM GMT
Back to Local

CYOY, Valcartier Airport

Location: , , Canada Lat: 46.9
Local Time: 4:42 PM GMT (16:42 GMT) Lon: -71.5
Time Zone: GMT Elev: 551 ft

Show me the last for .
Show Decoded

2017-11-22 16:24 METAR CYOY 221624Z AUTO 00000KT 6SM BKN003 BKN048 02/02 A2987 =
2017-11-22 16:13 METAR CYOY 221613Z AUTO 00000KT 6SM BKN004 BKN014 BKN048 02/02 A2987 =
2017-11-22 16:10 METAR CYOY 221610Z AUTO 00000KT 6SM SCT004 BKN014 BKN048 02/01 A2988 =
2017-11-22 16:00 METAR CYOY 221600Z 00000KT 3SM BR VCFG SCT006 BKN016 OVC048 02/01 A2988 RMK
                 SF4SC2SC2 SUN DIMLY VISBL LAST STFD OBS SLP126 =
2017-11-22 15:55 METAR CYOY 221555Z 00000KT 3SM BR VCFG SCT006 SCT010 OVC051 02/01 A2988 RMK
                 SF3SC1SC4 DA-828FT SUN DIMLY VISBL SLP126 =
2017-11-22 15:00 METAR CYOY 221500Z 00000KT 2 1/4SM -RA BR VCFG OVC006 01/00 A2989 RMK ST8
                 DA-957FT SLP134 =
2017-11-22 14:00 METAR CYOY 221400Z 00000KT 3SM -RA VCFG OVC009 00/00 A2989 RMK SC8 DA-983FT
                 SLP133 =
2017-11-22 13:46 METAR CYOY 221346Z 00000KT 3SM -RA VCFG OVC010 00/00 A2989 RMK SC8 DA-997FT
                 SLP132 =
2017-11-22 13:18 METAR CYOY 221318Z 00000KT 2 1/2SM -RA OVC008 00/M00 A2989 RMK SC8 DA-998FT
                 SLP132 =
2017-11-22 13:00 METAR CYOY 221300Z 00000KT 2 1/2SM -RA OVC012 00/00 A2989 RMK ST8 DA-996FT FST
                 STFD OBS SLP134 =
2017-11-22 12:42 METAR CYOY 221242Z AUTO 00000KT 2 1/2SM -RA OVC012 00/00 A2989 =
2017-11-22 12:07 METAR CYOY 221207Z AUTO 00000KT 3SM -RA OVC014 00/00 A2988 =
2017-11-22 12:00 METAR CYOY 221200Z AUTO 00000KT 2 1/2SM -RA OVC014 00/M00 A2988 RMK PCPN 0.5MM
                 PAST HR SLP127 =
2017-11-22 11:00 METAR CYOY 221100Z AUTO 00000KT 2 1/4SM -RA OVC014 00/M00 A2987 RMK ICG PAST HR
                 PCPN 0.5MM PAST HR SLP123 =
2017-11-22 10:43 METAR CYOY 221043Z AUTO 00000KT 2 1/2SM -RA OVC014 00/M00 A2986 RMK ICG PAST HR
                 =
2017-11-22 10:04 METAR CYOY 221004Z AUTO 00000KT 2 1/2SM -FZRA OVC014 00/M00 A2986 RMK ICG =
2017-11-22 10:02 METAR CYOY 221002Z AUTO 00000KT 3SM -FZRA OVC014 00/M00 A2986 RMK ICG =
2017-11-22 10:00 METAR CYOY 221000Z AUTO 00000KT 3SM -FZRA OVC017 00/M00 A2986 RMK ICG SLP120 =
2017-11-22 09:39 METAR CYOY 220939Z AUTO 00000KT 5SM -FZRA OVC024 00/M00 A2985 RMK ICG =
2017-11-22 09:00 METAR CYOY 220900Z AUTO 00000KT 6SM -FZRA OVC028 00/M00 A2986 RMK ICG SLP120 =
2017-11-22 08:56 METAR CYOY 220856Z AUTO 00000KT 5SM -FZRA OVC028 00/M01 A2986 RMK ICG =
2017-11-22 08:13 METAR CYOY 220813Z AUTO 00000KT 6SM -FZRA OVC023 M01/M01 A2985 RMK ICG =
2017-11-22 08:00 METAR CYOY 220800Z AUTO 00000KT 7SM -FZRA OVC025 M01/M02 A2985 RMK ICG SLP119 =
2017-11-22 07:07 METAR CYOY 220707Z AUTO 00000KT 9SM -FZRA OVC025 OVC053 OVC066 M01/M03 A2985 RMK
                 ICG =
2017-11-22 07:00 METAR CYOY 220700Z AUTO 00000KT 9SM -RA OVC025 OVC053 OVC066 M01/M03 A2985 RMK
                 SLP119 =
2017-11-22 06:36 METAR CYOY 220636Z AUTO 34002KT 9SM -RA OVC030 M01/M03 A2984 =
2017-11-22 06:30 METAR CYOY 220630Z AUTO 00000KT 9SM OVC032 M01/M03 A2984 =
2017-11-22 06:29 METAR CYOY 220629Z AUTO 00000KT 9SM -RA OVC032 M01/M03 A2984 =
2017-11-22 06:00 METAR CYOY 220600Z AUTO 00000KT 9SM FEW047 M02/M03 A2983 RMK SLP110 =
2017-11-22 05:00 METAR CYOY 220500Z AUTO 00000KT 9SM BKN054 OVC073 OVC084 M03/M04 A2982 RMK
                 SLP110 =
2017-11-22 04:00 METAR CYOY 220400Z AUTO 00000KT 9SM OVC084 M03/M04 A2981 RMK SLP105 =
2017-11-22 03:00 METAR CYOY 220300Z AUTO 00000KT 9SM CLR M03/M05 A2980 RMK SLP102 =
2017-11-22 02:00 METAR CYOY 220200Z AUTO 36003KT 9SM SCT053 M04/M05 A2979 RMK SLP101 =
2017-11-22 01:00 METAR CYOY 220100Z AUTO 36002KT 9SM FEW063 M03/M05 A2979 RMK SLP099 =
2017-11-22 00:00 METAR CYOY 220000Z AUTO 00000KT 9SM FEW075 M03/M05 A2979 RMK SLP100 =
2017-11-21 23:00 METAR CYOY 212300Z AUTO 00000KT 9SM CLR M02/M05 A2978 RMK SLP095 =
2017-11-21 22:00 METAR CYOY 212200Z AUTO 00000KT 9SM FEW092 M01/M04 A2977 RMK SLP093 =
2017-11-21 21:00 METAR CYOY 212100Z AUTO 02004KT 010V090 9SM FEW079 00/M05 A2975 RMK SLP087 =
2017-11-21 20:00 METAR CYOY 212000Z AUTO 05002KT 9SM FEW077 01/M05 A2975 RMK SLP087 =
2017-11-21 19:00 METAR CYOY 211900Z AUTO 00000KT 9SM CLR 01/M05 A2975 RMK PCPN 0.5MM PAST HR
                 SLP087 =
2017-11-21 18:00 METAR CYOY 211800Z AUTO 01006KT 9SM FEW077 FEW092 M01/M06 A2976 RMK SLP091 =
2017-11-21 17:00 METAR CYOY 211700Z AUTO 02005KT 350V050 9SM FEW092 M02/M07 A2978 RMK SLP098 =

Support USWX by starting your Amazon purchase here.